createdAt,value
2017-08-13T00:00:48.356Z,15.66
2017-08-13T00:03:15.976Z,15.67
2017-08-13T00:05:43.688Z,15.67
2017-08-13T00:08:11.299Z,15.68
2017-08-13T00:10:38.897Z,15.66
2017-08-13T00:13:06.522Z,15.66
2017-08-13T00:15:34.132Z,15.64
2017-08-13T00:18:01.757Z,15.63
2017-08-13T00:20:29.340Z,15.61
2017-08-13T00:22:56.984Z,15.63
2017-08-13T00:25:24.564Z,15.61
2017-08-13T00:27:52.476Z,15.60
2017-08-13T00:30:20.276Z,15.60
2017-08-13T00:32:47.863Z,15.60
2017-08-13T00:35:15.498Z,15.61
2017-08-13T00:37:43.205Z,15.60
2017-08-13T00:40:10.807Z,15.59
2017-08-13T00:42:38.399Z,15.55
2017-08-13T00:45:06.014Z,15.54
2017-08-13T00:47:33.601Z,15.54
2017-08-13T00:50:01.222Z,15.53
2017-08-13T00:52:28.800Z,15.52
2017-08-13T00:54:56.731Z,15.52
2017-08-13T00:57:24.318Z,15.50
2017-08-13T00:59:51.930Z,15.50
2017-08-13T01:02:20.787Z,15.53
2017-08-13T01:04:48.398Z,15.53
2017-08-13T01:07:16.018Z,15.53
2017-08-13T01:09:43.634Z,15.55
2017-08-13T01:12:11.254Z,15.54
2017-08-13T01:14:38.858Z,15.54
2017-08-13T01:17:06.453Z,15.54
2017-08-13T01:19:34.083Z,15.55
2017-08-13T01:22:02.017Z,15.53
2017-08-13T01:24:29.614Z,15.53
2017-08-13T01:26:57.219Z,15.54
2017-08-13T01:29:24.800Z,15.56
2017-08-13T01:31:52.454Z,15.58
2017-08-13T01:34:20.051Z,15.58
2017-08-13T01:36:47.649Z,15.57
2017-08-13T01:39:15.270Z,15.57
2017-08-13T01:41:42.877Z,15.57
2017-08-13T01:44:10.486Z,15.58
2017-08-13T01:46:38.075Z,15.61
2017-08-13T01:49:05.673Z,15.63
2017-08-13T01:51:34.570Z,15.65
2017-08-13T01:54:02.292Z,15.66
2017-08-13T01:56:30.009Z,15.65
2017-08-13T01:58:57.579Z,15.64
2017-08-13T02:01:25.172Z,15.60
2017-08-13T02:03:52.735Z,15.59
2017-08-13T02:06:24.317Z,15.61
2017-08-13T02:08:51.933Z,15.63
2017-08-13T02:11:19.625Z,15.64
2017-08-13T02:13:47.271Z,15.64
2017-08-13T02:16:15.215Z,15.64
2017-08-13T02:18:42.900Z,15.61
2017-08-13T02:21:10.472Z,15.58
2017-08-13T02:23:38.116Z,15.54
2017-08-13T02:26:05.721Z,15.52
2017-08-13T02:28:33.524Z,15.52
2017-08-13T02:31:01.126Z,15.52
2017-08-13T02:33:28.745Z,15.52
2017-08-13T02:35:56.675Z,15.47
2017-08-13T02:38:24.737Z,15.42
2017-08-13T02:40:52.337Z,15.38
2017-08-13T02:43:20.053Z,15.37
2017-08-13T02:45:47.656Z,15.33
2017-08-13T02:48:15.372Z,15.37
2017-08-13T02:50:42.987Z,15.38
2017-08-13T02:53:10.571Z,15.38
2017-08-13T02:55:38.157Z,15.37
2017-08-13T02:58:05.734Z,15.37
2017-08-13T03:00:33.627Z,15.36
2017-08-13T03:03:01.210Z,15.35
2017-08-13T03:05:28.783Z,15.34
2017-08-13T03:07:56.411Z,15.34
2017-08-13T03:10:24.001Z,15.31
2017-08-13T03:12:51.600Z,15.25
2017-08-13T03:15:19.183Z,15.23
2017-08-13T03:17:46.811Z,15.20
2017-08-13T03:20:14.413Z,15.19
2017-08-13T03:22:42.384Z,15.20
2017-08-13T03:25:09.964Z,15.19
2017-08-13T03:27:37.551Z,15.19
2017-08-13T03:30:05.163Z,15.19
2017-08-13T03:32:32.785Z,15.16
2017-08-13T03:35:01.452Z,15.17
2017-08-13T03:37:29.057Z,15.16
2017-08-13T03:39:56.668Z,15.15
2017-08-13T03:42:24.251Z,15.16
2017-08-13T03:44:51.892Z,15.17
2017-08-13T03:47:19.478Z,15.18
2017-08-13T03:49:47.123Z,15.19
2017-08-13T03:52:14.697Z,15.18
2017-08-13T03:54:42.761Z,15.17
2017-08-13T03:57:10.360Z,15.18
2017-08-13T03:59:37.932Z,15.17
2017-08-13T04:02:05.543Z,15.17
2017-08-13T04:04:33.169Z,15.13
2017-08-13T04:07:00.774Z,15.14
2017-08-13T04:09:28.392Z,15.17
2017-08-13T04:11:56.016Z,15.15
2017-08-13T04:14:23.604Z,15.16
2017-08-13T04:16:51.210Z,15.17
2017-08-13T04:19:18.814Z,15.15
2017-08-13T04:21:46.913Z,15.17
2017-08-13T04:24:14.518Z,15.17
2017-08-13T04:26:42.117Z,15.17
2017-08-13T04:29:09.834Z,15.14
2017-08-13T04:31:37.445Z,15.13
2017-08-13T04:34:05.055Z,15.11
2017-08-13T04:36:32.641Z,15.12
2017-08-13T04:39:00.247Z,15.11
2017-08-13T04:41:27.841Z,15.10
2017-08-13T04:43:55.769Z,15.13
2017-08-13T04:46:23.569Z,15.13
2017-08-13T04:48:51.166Z,15.12
2017-08-13T04:51:18.966Z,15.11
2017-08-13T04:53:46.562Z,15.10
2017-08-13T04:56:14.162Z,15.09
2017-08-13T04:58:41.776Z,15.08
2017-08-13T05:01:09.794Z,15.06
2017-08-13T05:03:37.389Z,15.06
2017-08-13T05:06:05.432Z,15.06
2017-08-13T05:08:33.048Z,15.04
2017-08-13T05:11:00.636Z,15.03
2017-08-13T05:13:28.255Z,15.07
2017-08-13T05:15:55.856Z,15.11
2017-08-13T05:18:23.496Z,15.13
2017-08-13T05:20:51.102Z,15.11
2017-08-13T05:23:18.739Z,15.12
2017-08-13T05:25:46.323Z,15.13
2017-08-13T05:28:13.935Z,15.12
2017-08-13T05:30:41.549Z,15.13
2017-08-13T05:33:09.539Z,15.13
2017-08-13T05:35:37.158Z,15.11
2017-08-13T05:38:04.759Z,15.13
2017-08-13T05:40:32.371Z,15.17
2017-08-13T05:42:59.980Z,15.19
2017-08-13T05:45:27.592Z,15.21
2017-08-13T05:47:55.203Z,15.23
2017-08-13T05:50:22.802Z,15.28
2017-08-13T05:52:50.395Z,15.29
2017-08-13T05:55:18.013Z,15.31
2017-08-13T05:57:45.600Z,15.32
2017-08-13T06:00:13.613Z,15.34
2017-08-13T06:02:41.201Z,15.33
2017-08-13T06:05:08.868Z,15.35
2017-08-13T06:07:36.508Z,15.38
2017-08-13T06:10:04.115Z,15.38
2017-08-13T06:12:31.748Z,15.39
2017-08-13T06:14:59.338Z,15.42
2017-08-13T06:17:26.964Z,15.43
2017-08-13T06:19:54.558Z,15.45
2017-08-13T06:22:22.281Z,15.48
2017-08-13T06:24:49.884Z,15.53
2017-08-13T06:27:17.881Z,15.52
2017-08-13T06:29:45.489Z,15.52
2017-08-13T06:32:13.078Z,15.53
2017-08-13T06:34:40.700Z,15.50
2017-08-13T06:37:08.309Z,15.50
2017-08-13T06:39:35.924Z,15.52
2017-08-13T06:42:03.517Z,15.55
2017-08-13T06:44:31.139Z,15.66
2017-08-13T06:46:58.727Z,15.79
2017-08-13T06:49:26.348Z,15.90
2017-08-13T06:51:53.956Z,16.02
2017-08-13T06:54:21.810Z,16.07
2017-08-13T06:56:49.396Z,16.09
2017-08-13T06:59:16.991Z,16.14
2017-08-13T07:01:44.589Z,16.19
2017-08-13T07:04:12.173Z,16.23
2017-08-13T07:06:39.789Z,16.32
2017-08-13T07:09:07.362Z,16.38
2017-08-13T07:11:34.981Z,16.41
2017-08-13T07:14:02.586Z,16.46
2017-08-13T07:16:30.199Z,16.48
2017-08-13T07:18:57.797Z,16.51
2017-08-13T07:21:25.448Z,16.56
2017-08-13T07:23:53.032Z,16.63
2017-08-13T07:26:20.956Z,16.74
2017-08-13T07:28:48.548Z,16.81
2017-08-13T07:31:16.267Z,16.82
2017-08-13T07:33:43.916Z,16.90
2017-08-13T07:36:11.686Z,16.93
2017-08-13T07:38:39.401Z,16.93
2017-08-13T07:41:06.990Z,17.08
2017-08-13T07:43:34.602Z,17.12
2017-08-13T07:46:02.186Z,17.09
2017-08-13T07:48:29.780Z,17.09
2017-08-13T07:50:57.375Z,17.09
2017-08-13T07:53:24.974Z,17.14
2017-08-13T07:55:52.592Z,17.14
2017-08-13T07:58:20.589Z,17.19
2017-08-13T08:00:48.188Z,17.24
2017-08-13T08:03:15.800Z,17.32
2017-08-13T08:05:43.424Z,17.44
2017-08-13T08:08:11.027Z,17.59
2017-08-13T08:10:38.652Z,17.54
2017-08-13T08:13:06.253Z,17.54
2017-08-13T08:15:33.851Z,17.57
2017-08-13T08:18:01.454Z,17.61
2017-08-13T08:20:29.347Z,17.72
2017-08-13T08:22:56.939Z,17.82
2017-08-13T08:25:24.604Z,17.87
2017-08-13T08:27:52.202Z,17.81
2017-08-13T08:30:21.226Z,17.86
2017-08-13T08:32:48.827Z,18.03
2017-08-13T08:35:16.508Z,18.19
2017-08-13T08:37:44.500Z,18.25
2017-08-13T08:40:12.122Z,18.30
2017-08-13T08:42:40.135Z,18.40
2017-08-13T08:45:07.773Z,18.41
2017-08-13T08:47:35.390Z,18.45
2017-08-13T08:50:03.055Z,18.52
2017-08-13T08:52:30.663Z,18.62
2017-08-13T08:54:58.304Z,18.71
2017-08-13T08:57:26.183Z,18.77
2017-08-13T08:59:54.293Z,18.84
2017-08-13T09:02:22.084Z,18.81
2017-08-13T09:04:49.704Z,18.81
2017-08-13T09:07:17.342Z,18.85
2017-08-13T09:09:44.962Z,18.96
2017-08-13T09:12:12.602Z,19.15
2017-08-13T09:14:40.202Z,19.38
2017-08-13T09:17:07.830Z,19.44
2017-08-13T09:19:35.427Z,19.48
2017-08-13T09:22:03.001Z,19.62
2017-08-13T09:24:30.584Z,19.80
2017-08-13T09:26:58.152Z,20.00
2017-08-13T09:29:26.137Z,20.12
2017-08-13T09:31:53.781Z,20.25
2017-08-13T09:34:21.368Z,20.27
2017-08-13T09:36:48.957Z,20.31
2017-08-13T09:39:16.570Z,20.27
2017-08-13T09:41:44.172Z,20.25
2017-08-13T09:44:11.780Z,20.28
2017-08-13T09:46:39.395Z,20.25
2017-08-13T09:49:07.045Z,20.26
2017-08-13T09:51:34.646Z,20.23
2017-08-13T09:54:02.253Z,20.28
2017-08-13T09:56:30.178Z,20.40
2017-08-13T09:58:57.772Z,20.60
2017-08-13T10:01:25.362Z,20.77
2017-08-13T10:03:52.968Z,20.92
2017-08-13T10:06:20.699Z,21.02
2017-08-13T10:08:48.283Z,21.15
2017-08-13T10:11:15.883Z,21.31
2017-08-13T10:13:43.831Z,21.38
2017-08-13T10:16:11.444Z,21.48
2017-08-13T10:18:39.115Z,21.46
2017-08-13T10:21:06.722Z,21.34
2017-08-13T10:23:34.320Z,21.44
2017-08-13T10:26:01.940Z,21.50
2017-08-13T10:28:29.572Z,21.65
2017-08-13T10:30:57.426Z,21.75
2017-08-13T10:33:25.020Z,21.89
2017-08-13T10:35:52.609Z,21.85
2017-08-13T10:38:20.243Z,21.80
2017-08-13T10:40:47.842Z,21.74
2017-08-13T10:43:15.490Z,21.68
2017-08-13T10:45:43.769Z,21.60
2017-08-13T10:48:11.739Z,21.53
2017-08-13T10:50:39.327Z,21.50
2017-08-13T10:53:07.100Z,21.56
2017-08-13T10:55:34.899Z,21.62
2017-08-13T10:58:02.488Z,21.69
2017-08-13T11:03:03.932Z,21.91
2017-08-13T11:05:31.971Z,22.06
2017-08-13T11:07:59.575Z,22.11
2017-08-13T11:10:27.165Z,22.19
2017-08-13T11:12:54.768Z,22.21
2017-08-13T11:15:22.353Z,22.38
2017-08-13T11:17:49.976Z,22.36
2017-08-13T11:20:17.585Z,22.30
2017-08-13T11:22:45.574Z,22.32
2017-08-13T11:25:13.154Z,22.38
2017-08-13T11:27:40.758Z,22.34
2017-08-13T11:30:08.354Z,22.43
2017-08-13T11:32:35.961Z,22.44
2017-08-13T11:35:03.600Z,22.38
2017-08-13T11:37:31.175Z,22.35
2017-08-13T11:39:59.080Z,22.40
2017-08-13T11:42:26.681Z,22.48
2017-08-13T11:44:54.265Z,22.49
2017-08-13T11:47:21.926Z,22.52
2017-08-13T11:49:49.695Z,22.47
2017-08-13T11:52:17.322Z,22.45
2017-08-13T11:54:44.997Z,22.47
2017-08-13T11:57:12.883Z,22.55
2017-08-13T11:59:40.509Z,22.62
2017-08-13T12:02:08.322Z,22.62
2017-08-13T12:04:36.159Z,22.63
2017-08-13T12:07:03.760Z,22.68
2017-08-13T12:09:31.399Z,22.68
2017-08-13T12:11:58.967Z,22.65
2017-08-13T12:14:27.109Z,22.66
2017-08-13T12:16:54.885Z,22.72
2017-08-13T12:19:22.479Z,22.72
2017-08-13T12:21:50.133Z,22.77
2017-08-13T12:24:17.756Z,22.78
2017-08-13T12:26:45.779Z,22.79
2017-08-13T12:29:13.370Z,22.76
2017-08-13T12:31:41.349Z,22.73
2017-08-13T12:34:09.134Z,22.75
2017-08-13T12:36:36.773Z,22.84
2017-08-13T12:39:04.413Z,22.82
2017-08-13T12:41:32.035Z,22.79
2017-08-13T12:44:00.106Z,22.82
2017-08-13T12:46:27.767Z,22.82
2017-08-13T12:48:55.381Z,22.78
2017-08-13T12:51:23.025Z,22.90
2017-08-13T12:53:50.632Z,22.96
2017-08-13T12:56:18.369Z,23.03
2017-08-13T12:58:46.655Z,23.14
2017-08-13T13:01:14.633Z,23.00
2017-08-13T13:03:42.239Z,22.87
2017-08-13T13:06:09.837Z,22.84
2017-08-13T13:08:37.450Z,23.01
2017-08-13T13:11:05.063Z,23.15
2017-08-13T13:13:32.684Z,23.24
2017-08-13T13:16:00.383Z,23.31
2017-08-13T13:18:28.299Z,23.38
2017-08-13T13:20:55.964Z,23.42
2017-08-13T13:23:23.766Z,23.64
2017-08-13T13:25:51.375Z,23.72
2017-08-13T13:28:18.953Z,23.84
2017-08-13T13:30:46.610Z,23.76
2017-08-13T13:33:14.213Z,23.85
2017-08-13T13:35:42.183Z,24.08
2017-08-13T13:38:09.761Z,24.19
2017-08-13T13:40:37.363Z,24.05
2017-08-13T13:43:04.983Z,24.03
2017-08-13T13:45:32.603Z,23.83
2017-08-13T13:48:00.303Z,23.88
2017-08-13T13:50:27.907Z,23.93
2017-08-13T13:52:55.907Z,23.99
2017-08-13T13:55:23.494Z,24.04
2017-08-13T13:57:51.105Z,24.08
2017-08-13T14:00:18.706Z,24.26
2017-08-13T14:02:46.330Z,24.52
2017-08-13T14:05:13.944Z,24.58
2017-08-13T14:07:41.534Z,24.55
2017-08-13T14:10:09.476Z,24.75
2017-08-13T14:12:37.147Z,24.86
2017-08-13T14:15:04.769Z,25.01
2017-08-13T14:17:32.410Z,24.84
2017-08-13T14:20:00.030Z,24.60
2017-08-13T14:22:27.734Z,24.30
2017-08-13T14:24:55.498Z,24.18
2017-08-13T14:27:23.214Z,24.07
2017-08-13T14:29:50.881Z,23.98
2017-08-13T14:32:18.508Z,23.83
2017-08-13T14:34:46.166Z,23.73
2017-08-13T14:37:13.801Z,23.67
2017-08-13T14:39:41.491Z,23.63
2017-08-13T14:42:09.372Z,24.01
2017-08-13T14:44:37.037Z,24.03
2017-08-13T14:47:04.642Z,24.27
2017-08-13T14:49:32.764Z,25.12
2017-08-13T14:52:00.530Z,25.99
2017-08-13T14:54:28.176Z,26.68
2017-08-13T14:56:55.834Z,27.15
2017-08-13T14:59:23.686Z,27.51
2017-08-13T15:01:51.369Z,27.65
2017-08-13T15:04:18.973Z,27.88
2017-08-13T15:06:46.597Z,28.13
2017-08-13T15:09:14.187Z,28.31
2017-08-13T15:11:41.945Z,28.46
2017-08-13T15:14:09.536Z,28.60
2017-08-13T15:16:37.475Z,28.67
2017-08-13T15:19:05.065Z,28.86
2017-08-13T15:21:32.625Z,29.04
2017-08-13T15:24:00.249Z,29.13
2017-08-13T15:26:27.842Z,29.05
2017-08-13T15:28:55.475Z,28.98
2017-08-13T15:31:23.075Z,28.73
2017-08-13T15:33:50.700Z,28.98
2017-08-13T15:36:19.557Z,29.17
2017-08-13T15:38:47.186Z,29.43
2017-08-13T15:41:14.779Z,29.51
2017-08-13T15:43:42.802Z,29.42
2017-08-13T15:46:10.394Z,29.48
2017-08-13T15:48:38.150Z,29.43
2017-08-13T15:51:05.834Z,29.47
2017-08-13T15:53:33.529Z,29.58
2017-08-13T15:56:01.242Z,29.55
2017-08-13T15:58:29.027Z,29.46
2017-08-13T16:00:56.879Z,29.45
2017-08-13T16:03:24.455Z,29.30
2017-08-13T16:05:52.075Z,29.04
2017-08-13T16:08:19.673Z,28.96
2017-08-13T16:10:47.311Z,28.95
2017-08-13T16:13:14.990Z,28.66
2017-08-13T16:15:42.994Z,28.56
2017-08-13T16:18:10.587Z,28.39
2017-08-13T16:20:38.636Z,28.09
2017-08-13T16:23:06.316Z,27.87
2017-08-13T16:25:33.921Z,27.51
2017-08-13T16:28:01.578Z,26.99
2017-08-13T16:30:29.240Z,26.66
2017-08-13T16:32:56.871Z,26.33
2017-08-13T16:35:24.566Z,26.06
2017-08-13T16:37:52.203Z,25.77
2017-08-13T16:40:19.845Z,25.52
2017-08-13T16:42:47.831Z,25.36
2017-08-13T16:45:15.412Z,25.20
2017-08-13T16:47:43.027Z,25.02
2017-08-13T16:50:10.658Z,24.89
2017-08-13T16:52:38.251Z,24.69
2017-08-13T16:55:05.944Z,24.45
2017-08-13T16:57:33.624Z,24.36
2017-08-13T17:00:01.319Z,24.28
2017-08-13T17:02:29.087Z,24.23
2017-08-13T17:04:56.714Z,24.17
2017-08-13T17:07:24.365Z,24.14
2017-08-13T17:09:51.982Z,24.12
2017-08-13T17:12:19.684Z,24.06
2017-08-13T17:14:47.625Z,24.03
2017-08-13T17:17:15.301Z,23.99
2017-08-13T17:19:42.934Z,23.86
2017-08-13T17:22:10.670Z,23.75
2017-08-13T17:24:38.279Z,23.65
2017-08-13T17:27:06.087Z,23.52
2017-08-13T17:29:33.724Z,23.43
2017-08-13T17:32:01.325Z,23.35
2017-08-13T17:34:28.909Z,23.25
2017-08-13T17:36:56.608Z,23.17
2017-08-13T17:39:24.214Z,23.10
2017-08-13T17:41:51.859Z,23.03
2017-08-13T17:44:19.561Z,22.93
2017-08-13T17:46:50.577Z,22.84
2017-08-13T17:49:18.202Z,22.74
2017-08-13T17:51:45.788Z,22.65
2017-08-13T17:54:13.398Z,22.57
2017-08-13T17:56:41.095Z,22.48
2017-08-13T17:59:08.933Z,22.41
2017-08-13T18:01:37.723Z,22.34
2017-08-13T18:04:05.807Z,22.27
2017-08-13T18:06:33.458Z,22.19
2017-08-13T18:09:01.188Z,22.13
2017-08-13T18:11:28.821Z,22.07
2017-08-13T18:13:56.530Z,22.00
2017-08-13T18:16:24.208Z,21.92
2017-08-13T18:18:52.059Z,21.87
2017-08-13T18:21:19.774Z,21.80
2017-08-13T18:23:47.374Z,21.72
2017-08-13T18:26:15.031Z,21.64
2017-08-13T18:28:42.627Z,21.58
2017-08-13T18:31:10.577Z,21.51
2017-08-13T18:33:38.247Z,21.45
2017-08-13T18:36:05.941Z,21.39
2017-08-13T18:38:33.540Z,21.32
2017-08-13T18:41:01.261Z,21.24
2017-08-13T18:43:29.065Z,21.18
2017-08-13T18:45:56.702Z,21.11
2017-08-13T18:48:24.303Z,21.04
2017-08-13T18:50:51.908Z,20.98
2017-08-13T18:53:19.549Z,20.92
2017-08-13T18:55:47.145Z,20.86
2017-08-13T18:58:15.323Z,20.81
2017-08-13T19:00:42.941Z,20.76
2017-08-13T19:03:10.761Z,20.72
2017-08-13T19:05:38.380Z,20.67
2017-08-13T19:08:06.073Z,20.63
2017-08-13T19:10:34.113Z,20.56
2017-08-13T19:13:01.799Z,20.49
2017-08-13T19:15:29.415Z,20.43
2017-08-13T19:17:57.055Z,20.39
2017-08-13T19:20:24.802Z,20.36
2017-08-13T19:22:52.612Z,20.33
2017-08-13T19:25:20.376Z,20.29
2017-08-13T19:27:48.169Z,20.26
2017-08-13T19:30:15.846Z,20.22
2017-08-13T19:32:44.198Z,20.19
2017-08-13T19:35:11.783Z,20.16
2017-08-13T19:37:39.390Z,20.12
2017-08-13T19:40:07.033Z,20.08
2017-08-13T19:42:34.677Z,20.05
2017-08-13T19:45:02.342Z,20.04
2017-08-13T19:47:30.040Z,20.03
2017-08-13T19:49:58.342Z,20.01
2017-08-13T19:52:25.933Z,19.99
2017-08-13T19:54:53.516Z,19.97
2017-08-13T19:57:21.227Z,19.95
2017-08-13T19:59:48.834Z,19.94
2017-08-13T20:02:16.756Z,19.93
2017-08-13T20:04:44.394Z,19.90
2017-08-13T20:07:12.215Z,19.91
2017-08-13T20:09:39.837Z,19.89
2017-08-13T20:12:10.279Z,19.87
2017-08-13T20:14:37.917Z,19.85
2017-08-13T20:17:05.481Z,19.83
2017-08-13T20:19:33.581Z,19.82
2017-08-13T20:22:01.281Z,19.82
2017-08-13T20:24:28.889Z,19.82
2017-08-13T20:26:56.523Z,19.82
2017-08-13T20:29:24.145Z,19.81
2017-08-13T20:31:53.263Z,19.80
2017-08-13T20:34:20.842Z,19.77
2017-08-13T20:36:48.542Z,19.73
2017-08-13T20:39:16.158Z,19.68
2017-08-13T20:41:43.798Z,19.63
2017-08-13T20:44:11.384Z,19.60
2017-08-13T20:46:39.007Z,19.58
2017-08-13T20:49:06.689Z,19.55
2017-08-13T20:51:34.296Z,19.51
2017-08-13T20:54:01.882Z,19.45
2017-08-13T20:56:29.459Z,19.41
2017-08-13T20:58:57.086Z,19.38
2017-08-13T21:01:24.806Z,19.38
2017-08-13T21:03:52.814Z,19.35
2017-08-13T21:06:20.441Z,19.33
2017-08-13T21:08:48.198Z,19.30
2017-08-13T21:11:15.804Z,19.25
2017-08-13T21:13:43.632Z,19.22
2017-08-13T21:16:11.237Z,19.20
2017-08-13T21:18:38.841Z,19.16
2017-08-13T21:21:07.526Z,19.13
2017-08-13T21:23:35.120Z,19.09
2017-08-13T21:26:03.120Z,19.05
2017-08-13T21:28:30.725Z,19.01
2017-08-13T21:30:58.313Z,18.97
2017-08-13T21:33:25.941Z,18.96
2017-08-13T21:35:53.693Z,18.93
2017-08-13T21:38:21.322Z,18.91
2017-08-13T21:40:49.344Z,18.89
2017-08-13T21:43:17.259Z,18.85
2017-08-13T21:45:44.873Z,18.82
2017-08-13T21:48:12.448Z,18.78
2017-08-13T21:50:40.365Z,18.75
2017-08-13T21:53:07.994Z,18.70
2017-08-13T21:55:35.605Z,18.67
2017-08-13T21:58:03.211Z,18.63
2017-08-13T22:00:31.267Z,18.60
2017-08-13T22:02:59.563Z,18.57
2017-08-13T22:05:27.154Z,18.54
2017-08-13T22:07:54.769Z,18.50
2017-08-13T22:10:22.361Z,18.47
2017-08-13T22:12:50.015Z,18.43
2017-08-13T22:15:17.595Z,18.41
2017-08-13T22:17:45.463Z,18.39
2017-08-13T22:20:13.078Z,18.37
2017-08-13T22:22:40.669Z,18.34
2017-08-13T22:25:08.302Z,18.29
2017-08-13T22:27:35.896Z,18.27
2017-08-13T22:30:03.519Z,18.25
2017-08-13T22:32:31.096Z,18.24
2017-08-13T22:34:59.114Z,18.21
2017-08-13T22:37:26.703Z,18.19
2017-08-13T22:39:54.349Z,18.17
2017-08-13T22:42:21.955Z,18.15
2017-08-13T22:44:49.543Z,18.10
2017-08-13T22:47:17.161Z,18.08
2017-08-13T22:49:44.748Z,18.05
2017-08-13T22:52:12.730Z,18.01
2017-08-13T22:54:40.335Z,17.99
2017-08-13T22:57:07.907Z,17.97
2017-08-13T22:59:35.513Z,17.96
2017-08-13T23:02:03.114Z,17.93
2017-08-13T23:04:30.725Z,17.88
2017-08-13T23:06:58.345Z,17.84
2017-08-13T23:09:25.929Z,17.81
2017-08-13T23:11:53.810Z,17.80
2017-08-13T23:14:21.567Z,17.78
2017-08-13T23:16:49.160Z,17.74
2017-08-13T23:19:16.790Z,17.73
2017-08-13T23:21:44.398Z,17.72
2017-08-13T23:24:12.027Z,17.69
2017-08-13T23:26:39.618Z,17.64
2017-08-13T23:29:07.487Z,17.63
2017-08-13T23:31:35.081Z,17.61
2017-08-13T23:34:02.666Z,17.60
2017-08-13T23:36:30.313Z,17.58
2017-08-13T23:38:57.900Z,17.55
2017-08-13T23:41:25.495Z,17.51
2017-08-13T23:43:53.102Z,17.46
2017-08-13T23:46:20.736Z,17.41
2017-08-13T23:48:48.392Z,17.37
2017-08-13T23:51:16.319Z,17.35
2017-08-13T23:53:44.028Z,17.35
2017-08-13T23:56:11.676Z,17.32
2017-08-13T23:58:39.274Z,17.31
